Time;durP1;ratioP1;P1;durP2;ratioP2;P2;SDS_P1;SDS_P2;PMS_P1;PMS_P2;Temp;Humidity;BMP_temperature;BMP_pressure;BME280_temperature;BME280_humidity;BME280_pressure;Samples;Min_cycle;Max_cycle;Signal;HPM_P1;HPM_P2
2021/10/31 00:02:21;;;;;;;30.43;21.87;;;2.00;99.90;1.10;96790.00;;;;5128571;27;20471;-58
2021/10/31 00:05:12;;;;;;;33.20;22.03;;;1.90;99.90;1.10;96783.00;;;;5129440;27;20422;-60
2021/10/31 00:08:01;;;;;;;30.97;21.37;;;1.90;99.90;1.00;96779.00;;;;5128942;27;20427;-60
2021/10/31 00:10:50;;;;;;;21.23;17.07;;;1.90;99.90;0.90;96779.00;;;;5128289;27;20416;-60
2021/10/31 00:13:39;;;;;;;32.77;20.27;;;1.80;99.90;1.10;96779.00;;;;5129464;27;20413;-60
2021/10/31 00:16:28;;;;;;;33.70;20.77;;;1.80;99.90;1.40;96786.00;;;;5129092;27;20426;-58
2021/10/31 00:19:17;;;;;;;35.13;21.60;;;1.80;99.90;1.60;96800.00;;;;5128261;27;20414;-58
2021/10/31 00:22:07;;;;;;;30.63;20.90;;;1.90;99.90;1.60;96787.00;;;;5127895;27;20459;-59
2021/10/31 00:24:56;;;;;;;30.93;21.27;;;2.10;99.90;1.80;96799.00;;;;5127455;27;20427;-58
2021/10/31 00:27:44;;;;;;;28.63;19.77;;;2.10;99.90;1.60;96784.00;;;;5128814;27;20415;-59
2021/10/31 00:30:33;;;;;;;26.17;20.07;;;2.20;99.90;1.10;96764.00;;;;5128343;27;20431;-58
2021/10/31 00:33:22;;;;;;;29.60;20.63;;;2.10;99.90;1.20;96778.00;;;;5128388;27;20408;-60
2021/10/31 00:36:11;;;;;;;34.13;20.43;;;2.10;99.90;1.30;96779.00;;;;5128167;27;20419;-58
2021/10/31 00:39:02;;;;;;;29.40;20.23;;;2.00;99.90;1.10;96786.00;;;;5128722;27;20795;-60
2021/10/31 00:41:50;;;;;;;34.63;20.93;;;2.00;99.90;1.20;96782.00;;;;5128420;27;20475;-59
2021/10/31 00:44:39;;;;;;;17.13;11.63;;;1.90;99.90;0.70;96772.00;;;;5127933;27;20412;-59
2021/10/31 00:47:28;;;;;;;28.60;19.53;;;1.90;99.90;0.90;96781.00;;;;5128467;27;20416;-59
2021/10/31 00:50:19;;;;;;;30.77;20.50;;;1.70;99.90;1.10;96764.00;;;;5128480;27;20407;-59
2021/10/31 00:53:08;;;;;;;30.70;20.93;;;1.80;99.90;1.20;96773.00;;;;5128707;27;20425;-57
2021/10/31 00:56:00;;;;;;;30.07;19.57;;;1.80;99.90;1.30;96777.00;;;;5122816;27;20820;-57
2021/10/31 00:58:49;;;;;;;30.40;20.33;;;1.90;99.90;1.50;96779.00;;;;5127310;27;20443;-58
2021/10/31 01:01:38;;;;;;;32.40;20.60;;;2.00;99.90;1.50;96788.00;;;;5127420;27;20459;-60
2021/10/31 01:04:27;;;;;;;29.03;18.17;;;2.10;99.90;1.40;96790.00;;;;5126592;27;20430;-61
2021/10/31 01:07:33;;;;;;;25.20;18.70;;;2.00;99.90;1.20;96775.00;;;;5127423;27;20420;-60
2021/10/31 01:10:40;;;;;;;23.87;18.13;;;2.10;99.90;1.10;96779.00;;;;5127606;27;20940;-59
2021/10/31 01:13:46;;;;;;;23.33;17.33;;;2.00;99.90;0.90;96782.00;;;;5128023;27;20420;-59
2021/10/31 01:16:52;;;;;;;27.43;19.80;;;1.90;99.90;0.90;96780.00;;;;5127161;27;20831;-59
2021/10/31 01:20:06;;;;;;;29.10;19.17;;;1.80;99.90;1.00;96783.00;;;;5107131;28;20417;-59
2021/10/31 01:23:28;;;;;;;29.73;18.70;;;1.80;99.90;1.10;96778.00;;;;5107304;28;20457;-61
2021/10/31 01:26:32;;;;;;;26.73;18.97;;;1.80;99.90;1.20;96781.00;;;;5127312;27;20423;-59
2021/10/31 01:29:41;;;;;;;36.43;19.80;;;1.80;99.90;1.30;96784.00;;;;5127617;27;20430;-61
2021/10/31 01:32:40;;;;;;;31.43;20.23;;;1.90;99.90;1.50;96761.00;;;;5127158;27;20823;-60
2021/10/31 01:35:49;;;;;;;34.73;21.07;;;2.00;99.90;1.60;96779.00;;;;5127335;27;20412;-59
2021/10/31 01:38:48;;;;;;;30.63;19.57;;;2.10;99.90;1.70;96781.00;;;;5127962;27;20422;-60
2021/10/31 01:41:48;;;;;;;28.33;16.77;;;2.20;99.90;0.80;96773.00;;;;5127044;27;20463;-60
2021/10/31 01:44:52;;;;;;;27.17;16.20;;;2.00;99.90;0.40;96766.00;;;;5126604;27;20412;-58
2021/10/31 01:47:50;;;;;;;26.63;18.20;;;1.80;99.90;0.50;96767.00;;;;5127023;27;20408;-61
2021/10/31 01:50:43;;;;;;;20.80;13.93;;;1.60;99.90;0.50;96777.00;;;;5127041;27;20412;-59
2021/10/31 01:53:37;;;;;;;27.13;16.10;;;1.50;99.90;0.70;96771.00;;;;5127322;27;20415;-59
2021/10/31 01:56:29;;;;;;;22.47;15.20;;;1.50;99.90;0.80;96774.00;;;;5125278;27;20794;-61
2021/10/31 01:59:26;;;;;;;25.30;17.20;;;1.60;99.90;0.90;96776.00;;;;5126766;27;20412;-61
2021/10/31 02:02:18;;;;;;;25.77;18.20;;;1.60;99.90;1.10;96765.00;;;;5127339;27;20455;-59
2021/10/31 02:05:09;;;;;;;26.77;17.07;;;1.70;99.90;1.20;96772.00;;;;5125960;27;20929;-59
2021/10/31 02:08:03;;;;;;;23.80;15.90;;;1.70;99.90;1.20;96771.00;;;;5125923;27;20423;-60
2021/10/31 02:10:53;;;;;;;26.37;16.60;;;1.80;99.90;1.20;96767.00;;;;5126858;27;20412;-58
2021/10/31 02:13:46;;;;;;;25.10;18.47;;;1.80;99.90;1.40;96761.00;;;;5127155;27;20416;-58
2021/10/31 02:16:36;;;;;;;29.63;17.30;;;1.90;99.90;1.50;96766.00;;;;5127409;27;20416;-61
2021/10/31 02:19:36;;;;;;;29.37;18.13;;;1.90;99.90;1.50;96759.00;;;;5125439;27;20422;-60
2021/10/31 02:22:28;;;;;;;26.57;16.07;;;2.00;99.90;1.60;96763.00;;;;5125622;27;20459;-60
2021/10/31 02:25:18;;;;;;;29.30;17.97;;;2.10;99.90;1.70;96752.00;;;;5125744;27;20443;-59
2021/10/31 02:28:07;;;;;;;24.13;17.17;;;2.10;99.90;1.60;96745.00;;;;5126934;27;20420;-60
2021/10/31 02:30:57;;;;;;;25.77;14.87;;;2.20;99.90;1.70;96746.00;;;;5126169;27;20416;-59
2021/10/31 02:33:46;;;;;;;22.23;15.87;;;2.30;99.90;1.60;96753.00;;;;5126685;27;20408;-61
2021/10/31 02:36:36;;;;;;;22.63;14.80;;;2.30;99.90;1.40;96741.00;;;;5126449;27;20445;-59
2021/10/31 02:39:25;;;;;;;23.60;14.77;;;2.20;99.90;1.30;96747.00;;;;5124945;27;20485;-59
2021/10/31 02:42:15;;;;;;;21.17;14.83;;;2.10;99.90;1.10;96736.00;;;;5126522;27;20475;-61
2021/10/31 02:45:06;;;;;;;22.50;14.87;;;2.00;99.90;1.00;96736.00;;;;5126730;28;20423;-60
2021/10/31 02:47:59;;;;;;;24.70;16.03;;;1.90;99.90;1.20;96741.00;;;;5127108;28;20423;-60
2021/10/31 02:50:48;;;;;;;21.20;13.90;;;1.90;99.90;1.30;96736.00;;;;5125948;28;20423;-60
2021/10/31 02:53:44;;;;;;;21.63;14.80;;;1.90;99.90;1.20;96740.00;;;;5127159;28;20442;-63
2021/10/31 02:56:42;;;;;;;20.97;14.73;;;1.90;99.90;1.10;96746.00;;;;5123207;28;20431;-60
2021/10/31 02:59:45;;;;;;;19.67;14.27;;;1.90;99.90;1.00;96740.00;;;;5120802;28;20422;-58
2021/10/31 03:02:35;;;;;;;25.03;14.13;;;1.80;99.90;1.00;96730.00;;;;5126095;28;20466;-61
2021/10/31 03:05:24;;;;;;;22.80;14.20;;;1.70;99.90;1.10;96721.00;;;;5125036;28;20412;-58
2021/10/31 03:08:13;;;;;;;21.50;15.20;;;1.80;99.90;1.20;96733.00;;;;5127370;28;20408;-58
2021/10/31 03:11:05;;;;;;;23.97;14.70;;;1.80;99.90;1.30;96733.00;;;;5125050;28;20439;-61
2021/10/31 03:13:54;;;;;;;21.87;14.27;;;1.80;99.90;1.10;96723.00;;;;5125504;27;20408;-58
2021/10/31 03:16:44;;;;;;;18.00;14.47;;;1.80;99.90;1.10;96721.00;;;;5130195;27;20415;-60
2021/10/31 03:19:33;;;;;;;19.77;14.70;;;1.80;99.90;1.10;96719.00;;;;5127722;27;20422;-59
2021/10/31 03:22:22;;;;;;;19.57;14.50;;;1.80;99.90;1.10;96716.00;;;;5128807;27;20472;-59
2021/10/31 03:25:11;;;;;;;20.57;15.10;;;1.80;99.90;1.10;96730.00;;;;5111947;27;20435;-58
2021/10/31 03:27:59;;;;;;;20.07;15.13;;;1.80;99.90;1.00;96728.00;;;;5108731;28;20421;-57
2021/10/31 03:30:48;;;;;;;17.93;11.73;;;1.80;99.90;0.80;96733.00;;;;5108368;28;20432;-59
2021/10/31 03:33:38;;;;;;;18.00;11.57;;;1.80;99.90;0.90;96731.00;;;;5109742;28;20461;-59
2021/10/31 03:36:27;;;;;;;18.20;14.13;;;1.70;99.90;1.10;96722.00;;;;5108529;28;20946;-60
2021/10/31 03:39:17;;;;;;;22.50;13.43;;;1.70;99.90;1.30;96726.00;;;;5109429;28;20654;-60
2021/10/31 03:42:07;;;;;;;18.57;13.93;;;1.80;99.90;1.40;96731.00;;;;5108837;28;20460;-59
2021/10/31 03:44:57;;;;;;;18.60;13.00;;;1.80;99.90;1.40;96733.00;;;;5107494;28;20425;-61
2021/10/31 03:47:48;;;;;;;22.93;15.37;;;1.80;99.90;1.30;96731.00;;;;5109070;28;20784;-60
2021/10/31 03:50:38;;;;;;;18.23;12.47;;;1.90;99.90;1.10;96724.00;;;;5109222;28;20439;-58
2021/10/31 03:53:27;;;;;;;21.07;13.47;;;1.90;99.90;1.10;96732.00;;;;5109212;28;20416;-60
2021/10/31 03:56:16;;;;;;;18.07;12.03;;;1.60;99.90;1.10;96723.00;;;;5107551;28;20425;-59
2021/10/31 03:59:05;;;;;;;14.53;10.90;;;1.80;99.90;0.80;96727.00;;;;5106392;28;20435;-59
2021/10/31 04:01:53;;;;;;;15.83;11.63;;;1.80;99.90;0.70;96720.00;;;;5108171;28;20432;-60
2021/10/31 04:04:42;;;;;;;20.13;11.43;;;1.70;99.90;0.70;96717.00;;;;5109433;28;20420;-60
2021/10/31 04:07:32;;;;;;;18.33;12.03;;;1.60;99.90;0.90;96712.00;;;;5109220;28;20428;-58
2021/10/31 04:10:21;;;;;;;17.03;11.87;;;1.60;99.90;0.80;96710.00;;;;5109035;28;20415;-58
2021/10/31 04:13:10;;;;;;;17.47;11.57;;;1.60;99.90;0.90;96715.00;;;;5109360;28;20421;-59
2021/10/31 04:15:59;;;;;;;14.27;11.43;;;1.60;99.90;1.00;96703.00;;;;5107769;28;20417;-61
2021/10/31 04:18:49;;;;;;;16.93;13.03;;;1.70;99.90;0.90;96713.00;;;;5107512;28;20429;-58
2021/10/31 04:21:37;;;;;;;16.77;12.27;;;1.60;99.90;0.80;96709.00;;;;5108584;28;20790;-60
2021/10/31 04:24:28;;;;;;;14.77;11.03;;;1.70;99.90;0.90;96701.00;;;;5117785;27;20459;-59
2021/10/31 04:27:16;;;;;;;16.87;11.27;;;1.70;99.90;0.90;96699.00;;;;5128303;27;20419;-61
2021/10/31 04:30:08;;;;;;;18.23;12.43;;;1.60;99.90;0.90;96703.00;;;;5128524;27;20420;-59
2021/10/31 04:32:56;;;;;;;17.20;11.93;;;1.60;99.90;0.80;96705.00;;;;5128913;27;20424;-60
2021/10/31 04:35:46;;;;;;;13.33;10.47;;;1.60;99.90;0.90;96703.00;;;;5127097;27;20416;-60
2021/10/31 04:38:34;;;;;;;13.07;10.03;;;1.60;99.90;1.00;96709.00;;;;5125361;27;20412;-60
2021/10/31 04:41:27;;;;;;;15.23;11.33;;;1.70;99.90;1.00;96705.00;;;;5127550;27;20439;-61
2021/10/31 04:44:17;;;;;;;13.50;9.60;;;1.70;99.90;0.70;96696.00;;;;5128851;27;20459;-59
2021/10/31 04:47:06;;;;;;;15.03;11.27;;;1.70;99.90;0.90;96701.00;;;;5128866;27;20407;-61
2021/10/31 04:49:55;;;;;;;14.00;10.30;;;1.60;99.90;1.00;96701.00;;;;5127667;27;20424;-60
2021/10/31 04:52:44;;;;;;;11.83;9.37;;;1.70;99.90;0.80;96692.00;;;;5127733;27;20792;-61
2021/10/31 04:55:33;;;;;;;14.00;9.83;;;1.70;99.90;1.10;96699.00;;;;5128111;27;20404;-59
2021/10/31 04:58:23;;;;;;;16.63;11.50;;;1.70;99.90;1.10;96689.00;;;;5120750;27;20416;-62
2021/10/31 05:01:12;;;;;;;15.37;9.27;;;1.70;99.90;1.10;96684.00;;;;5127866;27;20442;-59
2021/10/31 05:04:01;;;;;;;14.30;10.70;;;1.70;99.90;0.90;96695.00;;;;5127553;27;21091;-61
2021/10/31 05:06:50;;;;;;;17.30;10.53;;;1.80;99.90;1.10;96682.00;;;;5127273;27;20521;-60
2021/10/31 05:09:39;;;;;;;15.30;10.03;;;1.80;99.90;1.00;96681.00;;;;5126511;27;20416;-57
2021/10/31 05:12:28;;;;;;;15.43;10.40;;;1.80;99.90;0.70;96684.00;;;;5127273;27;20434;-59
2021/10/31 05:15:18;;;;;;;16.03;9.63;;;1.70;99.90;0.50;96689.00;;;;5127787;27;20424;-61
2021/10/31 05:18:07;;;;;;;15.00;8.90;;;1.50;99.90;0.70;96686.00;;;;5127496;27;20424;-58
2021/10/31 05:20:56;;;;;;;13.83;9.37;;;1.50;99.90;0.70;96682.00;;;;5126307;27;20412;-62
2021/10/31 05:23:45;;;;;;;15.30;10.03;;;1.60;99.90;0.80;96681.00;;;;5126543;27;21005;-60
2021/10/31 05:26:33;;;;;;;15.27;8.73;;;1.60;99.90;0.90;96684.00;;;;5106229;28;20404;-61
2021/10/31 05:29:22;;;;;;;15.33;10.87;;;1.60;99.90;1.00;96680.00;;;;5107241;28;20424;-61
2021/10/31 05:32:14;;;;;;;12.83;8.33;;;1.60;99.90;0.70;96692.00;;;;5106677;28;20433;-60
2021/10/31 05:35:05;;;;;;;14.13;9.83;;;1.70;99.90;0.40;96698.00;;;;5106652;28;20427;-62
2021/10/31 05:37:57;;;;;;;10.43;8.37;;;1.50;99.90;0.50;96694.00;;;;5105403;28;20819;-60
2021/10/31 05:40:47;;;;;;;12.77;10.60;;;1.40;99.90;0.60;96689.00;;;;5106179;28;20409;-59
2021/10/31 05:43:36;;;;;;;12.77;10.30;;;1.40;99.90;0.60;96688.00;;;;5106840;28;20464;-59
2021/10/31 05:46:25;;;;;;;12.43;9.77;;;1.50;99.90;0.70;96697.00;;;;5107630;28;20998;-60
2021/10/31 05:49:15;;;;;;;13.00;9.73;;;1.50;99.90;0.80;96700.00;;;;5105823;28;20935;-60
2021/10/31 05:52:06;;;;;;;14.20;9.70;;;1.50;99.90;1.00;96707.00;;;;5116110;27;20458;-59
2021/10/31 05:54:55;;;;;;;9.73;7.87;;;1.60;99.90;0.90;96706.00;;;;5126041;27;20420;-59
2021/10/31 05:57:45;;;;;;;13.77;8.97;;;1.60;99.90;1.10;96711.00;;;;5124978;27;20423;-61
2021/10/31 06:00:34;;;;;;;15.57;10.63;;;1.70;99.90;1.20;96718.00;;;;5126948;27;20412;-61
2021/10/31 06:03:24;;;;;;;17.67;11.27;;;1.80;99.90;1.30;96717.00;;;;5126031;27;20508;-59
2021/10/31 06:06:14;;;;;;;15.57;9.83;;;1.90;99.90;1.20;96724.00;;;;5125172;27;20408;-60
2021/10/31 06:09:03;;;;;;;14.83;10.07;;;1.90;99.90;1.10;96705.00;;;;5125585;27;20408;-59
2021/10/31 06:11:52;;;;;;;15.10;11.67;;;1.90;99.90;1.20;96716.00;;;;5126772;27;20462;-61
2021/10/31 06:14:41;;;;;;;19.50;12.97;;;1.90;99.90;1.20;96720.00;;;;5126291;27;20784;-60
2021/10/31 06:17:30;;;;;;;18.00;10.63;;;1.90;99.90;1.00;96716.00;;;;5125442;27;20422;-61
2021/10/31 06:20:43;;;;;;;23.07;14.53;;;1.90;99.90;1.10;96721.00;;;;5126390;27;20414;-58
2021/10/31 06:23:35;;;;;;;10.13;7.77;;;1.90;99.90;1.20;96709.00;;;;5122916;27;20451;-60
2021/10/31 06:26:24;;;;;;;18.83;10.33;;;1.90;99.90;1.40;96710.00;;;;5085564;28;20409;-61
2021/10/31 06:29:13;;;;;;;14.20;11.43;;;2.00;99.90;1.20;96716.00;;;;5084734;28;20417;-59
2021/10/31 06:32:02;;;;;;;11.40;9.63;;;2.00;99.90;1.50;96719.00;;;;5085414;28;20445;-57
2021/10/31 06:34:51;;;;;;;14.03;10.63;;;2.00;99.90;1.60;96727.00;;;;5084584;28;20428;-59
2021/10/31 06:37:40;;;;;;;13.10;9.27;;;2.10;99.90;1.20;96719.00;;;;5084664;28;21042;-60
2021/10/31 06:40:30;;;;;;;12.33;9.83;;;2.10;99.90;1.20;96724.00;;;;5085630;28;20882;-61
2021/10/31 06:43:19;;;;;;;13.33;10.23;;;2.10;99.90;1.50;96726.00;;;;5102457;28;20417;-60
2021/10/31 06:46:08;;;;;;;13.63;8.53;;;2.10;99.90;1.70;96721.00;;;;5102745;28;20417;-60
2021/10/31 06:49:21;;;;;;;13.87;9.43;;;2.20;99.90;1.90;96718.00;;;;5103895;28;20405;-60
2021/10/31 06:52:10;;;;;;;14.57;9.87;;;2.30;99.90;2.20;96731.00;;;;5104561;28;20441;-59
2021/10/31 06:54:59;;;;;;;13.37;9.37;;;2.50;99.90;2.40;96730.00;;;;5104356;28;20435;-57
2021/10/31 06:57:50;;;;;;;10.67;8.50;;;2.70;99.90;2.50;96726.00;;;;5102789;28;20413;-57
2021/10/31 07:00:39;;;;;;;11.47;8.33;;;2.80;99.90;2.60;96722.00;;;;5103727;28;20420;-60
2021/10/31 07:03:30;;;;;;;9.97;8.03;;;3.00;99.90;2.60;96726.00;;;;5104250;28;20413;-60
2021/10/31 07:06:18;;;;;;;10.27;8.17;;;3.10;99.90;2.50;96735.00;;;;5104738;28;20416;-60
2021/10/31 07:09:07;;;;;;;11.20;8.50;;;3.20;99.90;2.70;96728.00;;;;5106140;28;20950;-61
2021/10/31 07:11:58;;;;;;;15.60;9.10;;;3.20;99.90;2.70;96741.00;;;;5106348;28;20443;-60
2021/10/31 07:14:49;;;;;;;12.90;7.97;;;3.20;99.90;2.80;96733.00;;;;5104132;28;20413;-60
2021/10/31 07:17:39;;;;;;;12.70;8.60;;;3.30;99.90;2.60;96730.00;;;;5105809;28;20431;-60
2021/10/31 07:20:28;;;;;;;15.23;10.30;;;3.30;99.90;2.50;96727.00;;;;5104420;28;20421;-60
2021/10/31 07:23:17;;;;;;;10.27;8.27;;;3.30;99.90;2.80;96733.00;;;;5105327;28;20413;-59
2021/10/31 07:26:07;;;;;;;14.90;9.17;;;3.30;99.90;3.00;96733.00;;;;5123600;28;21075;-59
2021/10/31 07:28:56;;;;;;;11.60;9.07;;;3.40;99.90;2.70;96736.00;;;;5125613;28;20435;-60
2021/10/31 07:31:50;;;;;;;10.53;8.17;;;3.40;99.90;2.90;96733.00;;;;5126578;28;21141;-59
2021/10/31 07:34:39;;;;;;;12.00;9.40;;;3.50;99.90;3.00;96725.00;;;;5125368;28;20412;-60
2021/10/31 07:37:30;;;;;;;13.00;9.63;;;3.60;99.90;3.20;96730.00;;;;5125930;28;20801;-60
2021/10/31 07:40:19;;;;;;;13.73;9.73;;;3.70;99.90;3.50;96726.00;;;;5124891;28;20408;-60
2021/10/31 07:43:08;;;;;;;10.27;8.30;;;3.80;99.90;3.70;96729.00;;;;5120954;28;20957;-59
2021/10/31 07:46:00;;;;;;;12.83;9.50;;;3.90;99.90;4.00;96740.00;;;;5123545;28;20463;-59
2021/10/31 07:48:51;;;;;;;14.43;11.00;;;4.10;99.90;4.00;96733.00;;;;5128321;28;20944;-58
2021/10/31 07:51:40;;;;;;;18.63;12.07;;;4.30;99.90;4.30;96730.00;;;;5113908;28;20451;-60
2021/10/31 07:54:32;;;;;;;12.00;10.03;;;4.50;99.90;4.60;96733.00;;;;5129453;28;20428;-60
2021/10/31 07:57:24;;;;;;;14.80;10.07;;;4.70;99.90;4.60;96739.00;;;;5131880;28;20793;-58
2021/10/31 08:00:15;;;;;;;20.33;10.10;;;4.80;99.90;4.70;96727.00;;;;5129716;27;20435;-58
2021/10/31 08:03:05;;;;;;;15.73;10.17;;;5.00;99.90;4.80;96733.00;;;;5132887;27;20961;-59
2021/10/31 08:05:55;;;;;;;17.90;11.13;;;5.10;99.90;5.00;96723.00;;;;5118691;27;20229;-59
2021/10/31 08:08:44;;;;;;;13.47;9.53;;;5.30;99.90;5.40;96726.00;;;;5132998;27;20493;-59
2021/10/31 08:11:41;;;;;;;14.37;10.67;;;5.40;99.90;5.60;96727.00;;;;5114720;27;20728;-59
2021/10/31 08:14:32;;;;;;;12.77;9.57;;;5.60;99.90;5.70;96726.00;;;;5127834;27;20680;-60
2021/10/31 08:17:22;;;;;;;12.03;9.33;;;5.80;99.90;5.70;96727.00;;;;5129168;27;20194;-59
2021/10/31 08:20:13;;;;;;;13.30;10.07;;;5.90;99.90;6.10;96726.00;;;;5125769;27;20701;-60
2021/10/31 08:23:05;;;;;;;13.53;8.83;;;6.10;99.90;6.30;96713.00;;;;5129057;27;20226;-59
2021/10/31 08:25:54;;;;;;;11.30;8.73;;;6.30;99.90;6.40;96712.00;;;;5125387;27;20214;-59
2021/10/31 08:28:43;;;;;;;11.77;9.43;;;6.50;99.90;6.50;96711.00;;;;5131026;27;20201;-63
2021/10/31 08:31:36;;;;;;;14.50;9.27;;;6.60;99.90;6.50;96707.00;;;;5115011;27;20298;-62
2021/10/31 08:34:26;;;;;;;12.87;8.60;;;6.80;99.90;6.80;96701.00;;;;5128896;27;20246;-60
2021/10/31 08:37:15;;;;;;;12.93;8.80;;;6.90;99.90;7.00;96698.00;;;;5130657;27;20186;-59
2021/10/31 08:40:07;;;;;;;13.03;9.47;;;7.10;99.90;7.20;96708.00;;;;5130275;27;20209;-61
2021/10/31 08:42:56;;;;;;;12.87;9.60;;;7.20;99.90;7.30;96701.00;;;;5129201;27;20210;-59
2021/10/31 08:45:46;;;;;;;13.97;8.87;;;7.40;99.90;7.50;96699.00;;;;5126478;27;20214;-59
2021/10/31 08:48:37;;;;;;;15.10;7.97;;;7.60;99.90;7.60;96700.00;;;;5129946;27;20204;-63
2021/10/31 08:51:29;;;;;;;12.83;8.43;;;7.70;99.90;8.10;96704.00;;;;5131450;27;20354;-62
2021/10/31 08:54:19;;;;;;;9.10;8.10;;;7.90;99.90;8.20;96698.00;;;;5129518;27;20557;-63
2021/10/31 08:57:12;;;;;;;11.67;8.00;;;8.10;99.90;8.40;96709.00;;;;5124949;27;20205;-63
2021/10/31 09:00:01;;;;;;;9.90;8.20;;;8.30;99.90;8.70;96708.00;;;;5127524;27;20197;-62
2021/10/31 09:02:50;;;;;;;11.60;8.67;;;8.50;99.90;9.10;96705.00;;;;5122230;27;20225;-63
2021/10/31 09:05:39;;;;;;;11.70;7.27;;;8.80;99.90;9.10;96717.00;;;;5117725;27;20596;-64
2021/10/31 09:08:28;;;;;;;16.10;8.80;;;9.00;99.90;9.20;96720.00;;;;5127334;27;20209;-63
2021/10/31 09:11:17;;;;;;;10.27;7.33;;;9.20;99.90;9.50;96708.00;;;;5127257;27;20221;-60
2021/10/31 09:14:07;;;;;;;10.97;7.87;;;9.40;99.90;10.00;96713.00;;;;5126308;27;20564;-59
2021/10/31 09:16:56;;;;;;;11.27;7.03;;;9.60;99.90;10.40;96717.00;;;;5127670;27;20836;-57
2021/10/31 09:19:45;;;;;;;10.27;7.20;;;9.90;99.90;10.80;96721.00;;;;5112173;27;20209;-61
2021/10/31 09:22:35;;;;;;;10.57;7.63;;;10.20;99.90;11.10;96719.00;;;;5126953;27;20210;-58
2021/10/31 09:25:25;;;;;;;11.07;6.43;;;10.50;99.90;10.90;96718.00;;;;5127035;27;20252;-62
2021/10/31 09:28:14;;;;;;;10.87;6.03;;;10.70;99.90;11.20;96712.00;;;;5127252;27;20186;-59
2021/10/31 09:31:04;;;;;;;9.50;6.23;;;10.90;99.90;11.60;96716.00;;;;5126100;27;20472;-62
2021/10/31 09:33:54;;;;;;;10.17;6.57;;;11.10;99.90;11.70;96708.00;;;;5113399;27;20198;-63
2021/10/31 09:36:43;;;;;;;10.00;7.57;;;11.30;99.90;12.00;96713.00;;;;5126706;27;20573;-57
2021/10/31 09:39:32;;;;;;;7.30;6.37;;;11.50;99.90;12.20;96706.00;;;;5111524;27;20414;-62
2021/10/31 09:42:21;;;;;;;10.13;7.23;;;11.70;99.90;12.40;96706.00;;;;5125608;27;20237;-59
2021/10/31 09:45:11;;;;;;;11.33;7.17;;;11.90;99.90;12.70;96705.00;;;;5124559;27;20218;-59
2021/10/31 09:48:04;;;;;;;10.23;7.10;;;12.10;99.90;12.90;96699.00;;;;5124713;27;20699;-63
2021/10/31 09:50:53;;;;;;;18.30;9.00;;;12.30;99.90;12.80;96700.00;;;;5126374;27;20202;-59
2021/10/31 09:53:44;;;;;;;12.10;7.47;;;12.50;99.90;13.10;96707.00;;;;5127779;27;20194;-62
2021/10/31 09:56:36;;;;;;;14.30;8.23;;;12.60;99.90;13.40;96698.00;;;;5123470;27;20224;-59
2021/10/31 09:59:27;;;;;;;14.10;7.57;;;12.80;99.90;13.50;96687.00;;;;5121564;27;20187;-56
2021/10/31 10:02:37;;;;;;;13.80;8.30;;;13.00;99.90;13.70;96697.00;;;;5119685;27;20217;-63
2021/10/31 10:05:30;;;;;;;13.63;7.70;;;13.20;99.90;14.10;96676.00;;;;5121781;27;20217;-64
2021/10/31 10:08:19;;;;;;;13.57;8.47;;;13.40;99.90;14.20;96683.00;;;;5121620;27;20194;-60
2021/10/31 10:11:19;;;;;;;15.43;8.30;;;13.60;99.90;14.70;96671.00;;;;5121266;27;20225;-62
2021/10/31 10:14:12;;;;;;;10.27;7.57;;;13.80;99.90;15.00;96672.00;;;;5116149;27;20189;-63
2021/10/31 10:17:04;;;;;;;13.60;7.77;;;14.20;99.90;15.60;96667.00;;;;5120343;27;20209;-63
2021/10/31 10:19:58;;;;;;;14.27;8.60;;;14.70;99.90;16.10;96662.00;;;;5109546;27;20198;-63
2021/10/31 10:22:49;;;;;;;12.20;8.93;;;15.10;99.90;16.40;96667.00;;;;5123191;27;20218;-64
2021/10/31 10:25:42;;;;;;;15.07;10.73;;;15.70;99.90;16.90;96664.00;;;;5118085;27;20236;-62
2021/10/31 10:28:30;;;;;;;17.53;10.57;;;16.10;99.30;17.40;96658.00;;;;5123767;27;20217;-65
2021/10/31 10:31:22;;;;;;;14.33;10.60;;;16.60;97.30;17.50;96650.00;;;;5113658;27;20226;-64
2021/10/31 10:34:13;;;;;;;18.53;13.40;;;17.00;95.20;17.40;96644.00;;;;5122295;27;20202;-65
2021/10/31 10:37:08;;;;;;;13.33;10.87;;;17.20;92.90;17.50;96646.00;;;;5118256;27;20201;-63
2021/10/31 10:40:01;;;;;;;18.60;12.50;;;17.30;87.90;17.30;96634.00;;;;5120948;27;20205;-61
2021/10/31 10:42:52;;;;;;;14.27;12.27;;;17.50;84.00;17.20;96636.00;;;;5112914;27;20700;-62
2021/10/31 10:45:42;;;;;;;16.23;10.93;;;17.40;79.60;17.10;96631.00;;;;5116141;27;20228;-63
2021/10/31 10:48:30;;;;;;;17.93;12.67;;;17.30;76.10;17.70;96636.00;;;;5112036;27;20202;-62
2021/10/31 10:51:44;;;;;;;21.80;15.13;;;17.40;78.90;17.60;96634.00;;;;5112079;28;20721;-64
2021/10/31 10:54:32;;;;;;;23.97;16.57;;;17.50;77.60;17.30;96615.00;;;;5116909;28;20201;-60
2021/10/31 10:57:24;;;;;;;19.77;16.57;;;17.50;78.00;17.50;96622.00;;;;5115048;28;20202;-64
2021/10/31 11:00:18;;;;;;;18.13;14.93;;;17.50;77.30;16.90;96610.00;;;;5113114;28;20206;-59
2021/10/31 11:03:10;;;;;;;21.23;14.57;;;17.40;74.40;17.30;96601.00;;;;5116933;28;20198;-64
2021/10/31 11:06:02;;;;;;;18.37;14.33;;;17.30;75.00;17.80;96601.00;;;;5105862;28;20228;-61
2021/10/31 11:08:52;;;;;;;16.87;14.07;;;17.40;76.10;17.90;96592.00;;;;5115873;28;20206;-63
2021/10/31 11:11:41;;;;;;;19.03;15.00;;;17.60;74.80;18.40;96597.00;;;;5117437;28;20225;-65
2021/10/31 11:14:33;;;;;;;18.07;12.83;;;17.90;75.70;18.90;96595.00;;;;5118061;28;20233;-61
2021/10/31 11:17:22;;;;;;;19.43;14.77;;;18.20;73.90;19.50;96603.00;;;;5111101;28;20687;-59
2021/10/31 11:20:13;;;;;;;19.07;15.67;;;18.60;74.20;19.20;96595.00;;;;5108955;28;20197;-62
2021/10/31 11:23:07;;;;;;;21.00;16.03;;;18.90;73.30;19.20;96592.00;;;;5117431;28;20218;-63
2021/10/31 11:26:02;;;;;;;20.03;16.37;;;19.00;72.20;19.20;96589.00;;;;5114918;28;20206;-59
2021/10/31 11:28:52;;;;;;;20.67;16.63;;;19.00;71.50;19.20;96583.00;;;;5114752;28;20205;-60
2021/10/31 11:31:42;;;;;;;21.33;16.30;;;19.20;71.00;19.50;96574.00;;;;5118521;28;20218;-63
2021/10/31 11:34:32;;;;;;;21.73;15.53;;;19.40;70.40;20.00;96570.00;;;;5108869;28;20214;-62
2021/10/31 11:37:25;;;;;;;20.33;16.40;;;19.70;69.60;20.60;96569.00;;;;5112436;27;20657;-64
2021/10/31 11:40:16;;;;;;;22.63;18.00;;;19.90;69.80;20.20;96566.00;;;;5119985;27;20205;-63
2021/10/31 11:43:10;;;;;;;19.57;17.17;;;20.10;67.40;20.40;96568.00;;;;5117524;27;20221;-63
2021/10/31 11:45:59;;;;;;;21.97;17.90;;;20.30;67.40;20.80;96562.00;;;;5111909;27;20447;-61
2021/10/31 11:49:01;;;;;;;21.23;17.73;;;20.50;66.70;21.10;96562.00;;;;5122238;27;20202;-60
2021/10/31 11:51:54;;;;;;;22.37;18.27;;;20.80;66.50;21.70;96560.00;;;;5113174;27;20223;-60
2021/10/31 11:54:42;;;;;;;21.13;18.87;;;21.10;67.20;21.60;96559.00;;;;5116483;27;20201;-66
2021/10/31 11:57:31;;;;;;;21.47;18.30;;;21.40;65.20;22.10;96558.00;;;;5128035;27;20666;-64
2021/10/31 12:00:24;;;;;;;21.70;19.40;;;21.70;64.80;22.30;96550.00;;;;5119643;27;20204;-64
2021/10/31 12:03:44;;;;;;;23.53;19.90;;;22.00;63.00;19.40;96543.00;;;;5121654;27;20212;-59
2021/10/31 12:06:55;;;;;;;20.00;17.97;;;22.20;59.00;20.70;96542.00;;;;5114067;27;20753;-62
2021/10/31 12:09:44;;;;;;;21.37;18.60;;;21.60;60.50;21.70;96559.00;;;;5120555;27;20199;-62
2021/10/31 12:12:34;;;;;;;22.57;18.67;;;21.70;61.10;21.50;96545.00;;;;5109741;27;20219;-61
2021/10/31 12:15:32;;;;;;;23.00;19.33;;;21.70;60.80;21.30;96547.00;;;;5127679;27;20202;-64
2021/10/31 12:18:42;;;;;;;20.30;17.90;;;21.60;59.80;22.20;96545.00;;;;5123689;27;20204;-60
2021/10/31 12:21:33;;;;;;;23.70;20.13;;;21.80;61.20;22.20;96560.00;;;;5112651;27;20229;-63
2021/10/31 12:24:36;;;;;;;21.10;18.90;;;22.10;59.90;22.20;96542.00;;;;5121360;27;20218;-64
2021/10/31 12:27:28;;;;;;;23.27;20.13;;;22.20;59.10;22.80;96537.00;;;;5123682;27;20425;-58
2021/10/31 12:30:43;;;;;;;22.43;18.93;;;22.40;59.50;22.70;96539.00;;;;5113632;27;20193;-64
2021/10/31 12:33:32;;;;;;;23.87;21.37;;;22.60;59.00;19.50;96525.00;;;;5122925;27;20207;-59
2021/10/31 12:36:30;;;;;;;24.50;21.87;;;22.80;56.90;20.70;96519.00;;;;5124495;27;20203;-61
2021/10/31 12:40:06;;;;;;;22.83;20.37;;;22.00;58.10;20.90;96524.00;;;;5110324;27;20203;-65
2021/10/31 12:42:59;;;;;;;22.87;20.00;;;21.60;59.40;21.90;96528.00;;;;5125782;27;20223;-62